createdAt,value
2022-12-23T00:00:58.783Z,-0.59
2022-12-23T00:03:27.360Z,-0.63
2022-12-23T00:05:55.033Z,-0.64
2022-12-23T00:08:23.073Z,-1.00
2022-12-23T00:10:51.278Z,-0.66
2022-12-23T00:13:37.353Z,-0.98
2022-12-23T00:16:06.446Z,-0.66
2022-12-23T00:18:34.579Z,-0.64
2022-12-23T00:21:08.559Z,-1.10
2022-12-23T00:23:38.052Z,-0.51
2022-12-23T00:26:05.972Z,-0.50
2022-12-23T00:28:33.472Z,-0.59
2022-12-23T00:31:03.123Z,-0.47
2022-12-23T00:33:36.089Z,-0.60
2022-12-23T00:36:11.063Z,-0.51
2022-12-23T00:38:56.751Z,-0.65
2022-12-23T00:41:42.488Z,-0.53
2022-12-23T00:44:09.918Z,-1.03
2022-12-23T00:46:37.479Z,-0.83
2022-12-23T00:49:23.823Z,-0.53
2022-12-23T00:51:51.423Z,-1.29
2022-12-23T00:54:18.984Z,-0.80
2022-12-23T00:56:46.155Z,-0.54
2022-12-23T00:59:13.304Z,-0.95
2022-12-23T01:01:59.188Z,-0.55
2022-12-23T01:04:45.278Z,-0.67
2022-12-23T01:07:12.570Z,-0.58
2022-12-23T01:09:40.288Z,-0.62
2022-12-23T01:12:07.595Z,-0.58
2022-12-23T01:14:35.140Z,-0.83
2022-12-23T01:17:02.472Z,-1.12
2022-12-23T01:19:29.943Z,-0.99
2022-12-23T01:21:57.132Z,-0.63
2022-12-23T01:24:28.678Z,-1.02
2022-12-23T01:26:55.812Z,-0.90
2022-12-23T01:29:23.085Z,-0.72
2022-12-23T01:31:50.362Z,-0.61
2022-12-23T01:34:17.941Z,-0.79
2022-12-23T01:36:45.133Z,-0.72
2022-12-23T01:39:12.526Z,-1.41
2022-12-23T01:41:58.366Z,-0.74
2022-12-23T01:44:50.743Z,-0.63
2022-12-23T01:47:26.582Z,-0.80
2022-12-23T01:50:01.272Z,-1.19
2022-12-23T01:52:32.960Z,-0.64
2022-12-23T01:55:00.157Z,-0.82
2022-12-23T01:57:27.227Z,-0.90
2022-12-23T02:00:13.483Z,-0.65
2022-12-23T02:03:03.321Z,-0.64
2022-12-23T02:05:30.836Z,-0.77
2022-12-23T02:08:17.039Z,-1.12
2022-12-23T02:11:10.062Z,-1.19
2022-12-23T02:14:32.488Z,-0.65
2022-12-23T02:17:19.132Z,-0.93
2022-12-23T02:19:46.230Z,-0.75
2022-12-23T02:22:44.778Z,-0.68
2022-12-23T02:25:30.368Z,-0.68
2022-12-23T02:28:25.790Z,-0.99
2022-12-23T02:31:16.256Z,-1.20
2022-12-23T02:33:49.638Z,-0.65
2022-12-23T02:36:26.071Z,-0.62
2022-12-23T02:39:06.988Z,-0.63
2022-12-23T02:41:55.891Z,-0.79
2022-12-23T02:44:31.924Z,-0.63
2022-12-23T02:47:04.471Z,-1.21
2022-12-23T02:49:40.116Z,-1.34
2022-12-23T02:52:14.674Z,-1.24
2022-12-23T02:54:51.971Z,-1.43
2022-12-23T02:57:25.619Z,-0.66
2022-12-23T02:59:53.361Z,-0.85
2022-12-23T03:02:20.582Z,-0.70
2022-12-23T03:04:48.107Z,-1.35
2022-12-23T03:07:27.184Z,-1.11
2022-12-23T03:10:06.502Z,-0.77
2022-12-23T03:12:45.980Z,-0.68
2022-12-23T03:15:30.273Z,-0.74
2022-12-23T03:18:10.033Z,-0.68
2022-12-23T03:20:41.362Z,-0.67
2022-12-23T03:23:34.998Z,-0.76
2022-12-23T03:26:16.748Z,-1.17
2022-12-23T03:28:50.695Z,-1.41
2022-12-23T03:31:25.130Z,-0.88
2022-12-23T03:34:01.501Z,-0.66
2022-12-23T03:36:34.390Z,-0.92
2022-12-23T03:39:05.684Z,-1.26
2022-12-23T03:41:39.447Z,-1.21
2022-12-23T03:44:16.067Z,-1.14
2022-12-23T03:46:53.036Z,-1.02
2022-12-23T03:49:27.609Z,-0.65
2022-12-23T03:52:05.488Z,-0.91
2022-12-23T03:54:48.662Z,-0.86
2022-12-23T03:57:16.354Z,-1.05
2022-12-23T03:59:48.286Z,-0.76
2022-12-23T04:02:39.370Z,-0.62
2022-12-23T04:05:23.142Z,-0.65
2022-12-23T04:07:59.232Z,-1.16
2022-12-23T04:10:32.929Z,-0.71
2022-12-23T04:13:03.067Z,-1.47
2022-12-23T04:15:30.974Z,-1.23
2022-12-23T04:17:59.191Z,-1.13
2022-12-23T04:20:28.910Z,-0.75
2022-12-23T04:22:56.528Z,-0.71
2022-12-23T04:25:27.036Z,-0.60
2022-12-23T04:27:54.126Z,-0.61
2022-12-23T04:30:21.404Z,-0.65
2022-12-23T04:32:48.742Z,-0.87
2022-12-23T04:35:15.975Z,-0.61
2022-12-23T04:37:43.312Z,-0.85
2022-12-23T04:40:13.655Z,-0.67
2022-12-23T04:42:40.729Z,-0.72
2022-12-23T04:45:08.456Z,-0.62
2022-12-23T04:47:35.774Z,-1.00
2022-12-23T04:50:03.188Z,-0.59
2022-12-23T04:52:30.774Z,-0.67
2022-12-23T04:54:57.840Z,-0.62
2022-12-23T04:57:24.958Z,-0.86
2022-12-23T04:59:51.950Z,-0.72
2022-12-23T05:02:19.275Z,-0.58
2022-12-23T05:04:46.407Z,-0.70
2022-12-23T05:07:13.454Z,-0.67
2022-12-23T05:09:40.591Z,-0.89
2022-12-23T05:12:07.804Z,-0.68
2022-12-23T05:14:35.348Z,-0.89
2022-12-23T05:17:07.437Z,-1.33
2022-12-23T05:19:35.358Z,-0.83
2022-12-23T05:22:02.464Z,-0.67
2022-12-23T05:24:29.538Z,-0.58
2022-12-23T05:26:59.973Z,-0.63
2022-12-23T05:29:28.115Z,-0.60
2022-12-23T05:31:55.411Z,-0.69
2022-12-23T05:34:22.910Z,-0.61
2022-12-23T05:36:49.992Z,-0.76
2022-12-23T05:39:17.025Z,-0.77
2022-12-23T05:41:44.188Z,-0.94
2022-12-23T05:44:11.221Z,-0.97
2022-12-23T05:46:38.418Z,-0.70
2022-12-23T05:49:05.637Z,-0.61
2022-12-23T05:51:32.710Z,-0.84
2022-12-23T05:53:59.792Z,-0.77
2022-12-23T05:56:27.383Z,-0.58
2022-12-23T05:58:59.377Z,-0.62
2022-12-23T06:01:26.719Z,-0.57
2022-12-23T06:03:53.886Z,-0.77
2022-12-23T06:06:21.181Z,-0.81
2022-12-23T06:08:48.249Z,-0.70
2022-12-23T06:11:15.429Z,-0.98
2022-12-23T06:13:42.437Z,-0.55
2022-12-23T06:16:09.771Z,-0.54
2022-12-23T06:18:37.159Z,-0.49
2022-12-23T06:21:04.457Z,-0.49
2022-12-23T06:23:31.498Z,-0.84
2022-12-23T06:26:00.144Z,-0.47
2022-12-23T06:28:27.869Z,-0.53
2022-12-23T06:30:56.906Z,-0.43
2022-12-23T06:33:24.956Z,-0.55
2022-12-23T06:35:51.937Z,-0.46
2022-12-23T06:38:18.927Z,-0.59
2022-12-23T06:40:45.951Z,-0.49
2022-12-23T06:43:13.641Z,-0.55
2022-12-23T06:45:41.199Z,-0.61
2022-12-23T06:48:08.292Z,-0.53
2022-12-23T06:50:35.441Z,-0.49
2022-12-23T06:53:02.543Z,-0.46
2022-12-23T06:55:29.693Z,-0.73
2022-12-23T06:57:56.898Z,-0.46
2022-12-23T07:00:24.342Z,-0.46
2022-12-23T07:02:54.201Z,-0.45
2022-12-23T07:05:21.403Z,-0.64
2022-12-23T07:07:48.431Z,-0.49
2022-12-23T07:10:15.484Z,-0.46
2022-12-23T07:12:47.420Z,-0.55
2022-12-23T07:15:17.513Z,-0.64
2022-12-23T07:17:44.585Z,-0.74
2022-12-23T07:20:13.683Z,-0.47
2022-12-23T07:22:41.341Z,-0.46
2022-12-23T07:25:08.860Z,-0.60
2022-12-23T07:27:35.764Z,-0.80
2022-12-23T07:30:03.005Z,-0.51
2022-12-23T07:32:31.188Z,-0.40
2022-12-23T07:34:58.188Z,-0.46
2022-12-23T07:37:25.234Z,-0.69
2022-12-23T07:39:52.266Z,-0.43
2022-12-23T07:42:44.892Z,-0.47
2022-12-23T07:45:07.151Z,-0.55
2022-12-23T07:47:34.180Z,-0.46
2022-12-23T07:50:01.691Z,-0.25
2022-12-23T07:52:30.428Z,-0.27
2022-12-23T07:54:57.471Z,-0.24
2022-12-23T07:57:24.536Z,-0.22
2022-12-23T07:59:51.589Z,-0.35
2022-12-23T08:02:18.736Z,-0.38
2022-12-23T08:04:46.637Z,-0.22
2022-12-23T08:07:13.840Z,-0.19
2022-12-23T08:09:40.871Z,-0.25
2022-12-23T08:12:07.940Z,-0.29
2022-12-23T08:14:35.057Z,-0.65
2022-12-23T08:17:02.155Z,-0.43
2022-12-23T08:19:29.293Z,-0.30
2022-12-23T08:21:56.324Z,-0.73
2022-12-23T08:24:23.361Z,-0.25
2022-12-23T08:26:50.281Z,-0.41
2022-12-23T08:29:17.604Z,-0.53
2022-12-23T08:31:44.650Z,-0.25
2022-12-23T08:34:11.655Z,-0.30
2022-12-23T08:36:40.110Z,-0.39
2022-12-23T08:39:10.202Z,-0.29
2022-12-23T08:41:41.150Z,-0.28
2022-12-23T08:44:09.092Z,-0.36
2022-12-23T08:46:36.784Z,-0.37
2022-12-23T08:49:05.016Z,-0.28
2022-12-23T08:51:32.282Z,-0.32
2022-12-23T08:54:01.228Z,-0.49
2022-12-23T08:56:31.199Z,-0.22
2022-12-23T08:58:58.498Z,-0.25
2022-12-23T09:01:28.505Z,-0.23
2022-12-23T09:03:55.797Z,-0.23
2022-12-23T09:06:29.671Z,-0.29
2022-12-23T09:08:58.682Z,-0.26
2022-12-23T09:11:27.765Z,-0.18
2022-12-23T09:13:56.487Z,-0.17
2022-12-23T09:16:23.637Z,-0.17
2022-12-23T09:18:50.846Z,-0.30
2022-12-23T09:21:21.099Z,-0.17
2022-12-23T09:23:48.604Z,-0.15
2022-12-23T09:26:24.604Z,-0.14
2022-12-23T09:28:52.084Z,-0.27
2022-12-23T09:31:19.466Z,-0.23
2022-12-23T09:33:48.391Z,-0.15
2022-12-23T09:36:15.585Z,-0.33
2022-12-23T09:38:42.972Z,-0.08
2022-12-23T09:41:48.844Z,-0.08
2022-12-23T09:44:34.900Z,-0.07
2022-12-23T09:47:05.476Z,-0.08
2022-12-23T09:49:34.411Z,-0.05
2022-12-23T09:52:09.325Z,-0.04
2022-12-23T09:54:48.652Z,-0.18
2022-12-23T09:57:27.731Z,-0.02
2022-12-23T09:59:54.695Z,0.00
2022-12-23T10:02:31.002Z,-0.02
2022-12-23T10:05:22.565Z,-0.06
2022-12-23T10:08:10.712Z,-0.09
2022-12-23T10:11:21.353Z,-0.25
2022-12-23T10:14:00.223Z,-0.02
2022-12-23T10:16:42.197Z,-0.03
2022-12-23T10:19:20.891Z,-0.38
2022-12-23T10:21:55.017Z,-0.01
2022-12-23T10:24:24.458Z,0.03
2022-12-23T10:27:16.964Z,0.06
2022-12-23T10:29:44.170Z,0.06
2022-12-23T10:32:17.441Z,0.09
2022-12-23T10:34:52.691Z,0.08
2022-12-23T10:37:33.483Z,0.05
2022-12-23T10:40:16.988Z,0.08
2022-12-23T10:43:28.651Z,0.03
2022-12-23T10:46:04.733Z,0.09
2022-12-23T10:48:47.017Z,0.06
2022-12-23T10:51:23.264Z,0.10
2022-12-23T10:54:00.718Z,0.08
2022-12-23T10:56:30.636Z,-0.16
2022-12-23T10:59:00.205Z,-0.56
2022-12-23T11:01:30.219Z,-0.20
2022-12-23T11:04:03.237Z,0.11
2022-12-23T11:06:37.172Z,-0.16
2022-12-23T11:09:06.480Z,0.06
2022-12-23T11:12:18.569Z,0.13
2022-12-23T11:14:57.678Z,0.10
2022-12-23T11:17:30.109Z,0.02
2022-12-23T11:20:20.252Z,0.12
2022-12-23T11:22:48.873Z,0.13
2022-12-23T11:25:29.536Z,-0.09
2022-12-23T11:28:10.295Z,0.11
2022-12-23T11:31:09.870Z,0.17
2022-12-23T11:33:40.440Z,0.16
2022-12-23T11:36:14.792Z,0.05
2022-12-23T11:38:58.517Z,0.18
2022-12-23T11:41:29.192Z,0.14
2022-12-23T11:44:00.871Z,-0.06
2022-12-23T11:46:31.848Z,-0.08
2022-12-23T11:49:06.471Z,-0.05
2022-12-23T11:51:33.789Z,0.01
2022-12-23T11:54:02.988Z,0.12
2022-12-23T11:56:38.994Z,0.11
2022-12-23T11:59:09.957Z,-0.16
2022-12-23T12:01:39.451Z,0.06
2022-12-23T12:04:18.341Z,-0.18
2022-12-23T12:06:51.187Z,-0.16
2022-12-23T12:09:23.767Z,0.05
2022-12-23T12:11:56.707Z,-0.17
2022-12-23T12:14:48.680Z,0.05
2022-12-23T12:17:23.657Z,-0.06
2022-12-23T12:20:12.546Z,0.04
2022-12-23T12:22:52.305Z,0.06
2022-12-23T12:25:22.688Z,0.03
2022-12-23T12:28:04.454Z,0.03
2022-12-23T12:30:41.832Z,-0.10
2022-12-23T12:33:20.013Z,0.04
2022-12-23T12:35:54.001Z,-0.12
2022-12-23T12:38:26.638Z,0.05
2022-12-23T12:41:00.960Z,0.02
2022-12-23T12:43:34.520Z,0.03
2022-12-23T12:46:10.608Z,-0.01
2022-12-23T12:48:47.238Z,-0.01
2022-12-23T12:51:25.625Z,-0.09
2022-12-23T12:54:14.160Z,-0.01
2022-12-23T12:56:52.839Z,0.00
2022-12-23T12:59:32.041Z,-0.01
2022-12-23T13:02:23.892Z,0.01
2022-12-23T13:05:15.888Z,0.01
2022-12-23T13:08:00.708Z,0.01
2022-12-23T13:10:49.513Z,-0.01
2022-12-23T13:13:35.338Z,-0.02
2022-12-23T13:16:10.888Z,-0.31
2022-12-23T13:18:56.532Z,-0.06
2022-12-23T13:21:50.294Z,-0.01
2022-12-23T13:24:27.256Z,-0.26
2022-12-23T13:27:10.884Z,-0.03
2022-12-23T13:30:18.026Z,-0.03
2022-12-23T13:32:45.042Z,-0.05
2022-12-23T13:35:57.301Z,-0.03
2022-12-23T13:39:19.218Z,-0.04
2022-12-23T13:41:51.817Z,-0.09
2022-12-23T13:44:21.564Z,-0.03
2022-12-23T13:47:10.425Z,-0.02
2022-12-23T13:49:40.459Z,-0.02
2022-12-23T13:52:15.873Z,-0.03
2022-12-23T13:54:51.916Z,-0.02
2022-12-23T13:57:37.592Z,-0.23
2022-12-23T14:00:16.862Z,-0.01
2022-12-23T14:02:50.131Z,-0.01
2022-12-23T14:05:49.040Z,-0.02
2022-12-23T14:08:19.206Z,0.01
2022-12-23T14:11:13.222Z,0.02
2022-12-23T14:13:40.199Z,-0.02
2022-12-23T14:16:19.409Z,0.01
2022-12-23T14:19:05.183Z,0.01
2022-12-23T14:21:50.466Z,0.02
2022-12-23T14:24:35.709Z,-0.01
2022-12-23T14:27:30.894Z,0.00
2022-12-23T14:30:25.895Z,0.01
2022-12-23T14:32:59.783Z,0.01
2022-12-23T14:35:36.975Z,-0.01
2022-12-23T14:38:16.229Z,0.01
2022-12-23T14:40:43.176Z,0.01
2022-12-23T14:43:22.485Z,0.04
2022-12-23T14:45:51.769Z,0.02
2022-12-23T14:48:34.173Z,0.02
2022-12-23T14:51:22.567Z,-0.14
2022-12-23T14:53:58.234Z,0.00
2022-12-23T14:56:42.126Z,0.03
2022-12-23T14:59:33.413Z,0.02
2022-12-23T15:02:04.126Z,-0.07
2022-12-23T15:04:45.162Z,0.01
2022-12-23T15:07:36.745Z,0.00
2022-12-23T15:10:21.978Z,-0.33
2022-12-23T15:12:56.924Z,0.01
2022-12-23T15:15:29.683Z,-0.10
2022-12-23T15:18:13.365Z,-0.07
2022-12-23T15:20:41.062Z,0.02
2022-12-23T15:23:11.911Z,0.00
2022-12-23T15:25:44.695Z,-0.03
2022-12-23T15:28:22.118Z,-0.13
2022-12-23T15:30:53.841Z,0.01
2022-12-23T15:36:12.477Z,-0.14
2022-12-23T15:38:39.710Z,-0.11
2022-12-23T15:41:16.776Z,-0.05
2022-12-23T15:43:45.265Z,0.06
2022-12-23T15:46:25.066Z,0.01
2022-12-23T15:48:54.376Z,0.04
2022-12-23T15:52:05.750Z,0.06
2022-12-23T15:54:34.046Z,-0.12
2022-12-23T15:57:03.422Z,-0.27
2022-12-23T15:59:38.586Z,-0.15
2022-12-23T16:05:37.069Z,-0.15
2022-12-23T16:08:16.484Z,0.07
2022-12-23T16:11:05.348Z,-0.04
2022-12-23T16:13:38.187Z,0.04
2022-12-23T16:16:37.514Z,0.10
2022-12-23T16:19:05.191Z,0.11
2022-12-23T16:21:37.107Z,-0.11
2022-12-23T16:24:08.891Z,-0.07
2022-12-23T16:26:44.363Z,0.13
2022-12-23T16:29:12.028Z,-0.07
2022-12-23T16:31:41.673Z,0.08
2022-12-23T16:34:13.346Z,0.10
2022-12-23T16:36:40.503Z,-0.04
2022-12-23T16:39:07.446Z,0.13
2022-12-23T16:41:36.635Z,-0.13
2022-12-23T16:44:04.548Z,0.04
2022-12-23T16:46:39.868Z,0.12
2022-12-23T16:49:11.350Z,0.16
2022-12-23T16:51:39.275Z,0.15
2022-12-23T16:54:06.359Z,0.17
2022-12-23T16:56:37.862Z,0.18
2022-12-23T16:59:05.294Z,0.11
2022-12-23T17:01:36.025Z,0.04
2022-12-23T17:04:03.610Z,0.05
2022-12-23T17:06:32.948Z,0.18
2022-12-23T17:09:01.520Z,0.20
2022-12-23T17:11:44.786Z,0.13
2022-12-23T17:14:20.936Z,0.07
2022-12-23T17:16:49.054Z,0.20
2022-12-23T17:19:20.481Z,0.09
2022-12-23T17:21:56.019Z,0.29
2022-12-23T17:24:25.644Z,0.18
2022-12-23T17:26:54.137Z,0.15
2022-12-23T17:29:21.293Z,0.08
2022-12-23T17:31:50.287Z,0.27
2022-12-23T17:34:22.711Z,0.28
2022-12-23T17:36:51.144Z,0.14
2022-12-23T17:39:19.297Z,0.27
2022-12-23T17:41:46.615Z,0.25
2022-12-23T17:44:15.164Z,0.29
2022-12-23T17:46:42.785Z,0.27
2022-12-23T17:49:09.804Z,0.27
2022-12-23T17:51:39.602Z,-0.05
2022-12-23T17:54:06.831Z,0.30
2022-12-23T17:56:33.976Z,0.05
2022-12-23T17:59:01.149Z,0.19
2022-12-23T18:01:31.890Z,0.32
2022-12-23T18:04:06.430Z,0.12
2022-12-23T18:06:33.689Z,0.12
2022-12-23T18:09:00.665Z,0.33
2022-12-23T18:11:39.077Z,0.34
2022-12-23T18:14:07.758Z,0.28
2022-12-23T18:16:34.825Z,0.31
2022-12-23T18:19:01.955Z,0.28
2022-12-23T18:21:29.557Z,0.29
2022-12-23T18:23:58.920Z,0.30
2022-12-23T18:26:26.385Z,0.34
2022-12-23T18:28:54.878Z,0.11
2022-12-23T18:31:24.625Z,0.41
2022-12-23T18:33:52.969Z,0.21
2022-12-23T18:36:24.643Z,0.42
2022-12-23T18:38:52.858Z,0.44
2022-12-23T18:41:22.004Z,0.37
2022-12-23T18:43:50.086Z,0.43
2022-12-23T18:46:17.826Z,0.14
2022-12-23T18:48:44.894Z,0.30
2022-12-23T18:51:16.970Z,0.45
2022-12-23T18:53:44.315Z,0.44
2022-12-23T18:56:16.644Z,0.46
2022-12-23T18:58:43.761Z,0.45
2022-12-23T19:01:15.928Z,0.24
2022-12-23T19:03:43.893Z,0.47
2022-12-23T19:06:14.152Z,0.39
2022-12-23T19:08:41.996Z,0.41
2022-12-23T19:11:15.096Z,0.33
2022-12-23T19:13:42.390Z,0.46
2022-12-23T19:16:15.587Z,0.45
2022-12-23T19:18:43.332Z,0.23
2022-12-23T19:21:10.417Z,0.40
2022-12-23T19:23:39.435Z,0.45
2022-12-23T19:26:06.721Z,0.46
2022-12-23T19:28:34.159Z,0.32
2022-12-23T19:31:06.381Z,0.47
2022-12-23T19:33:36.843Z,0.38
2022-12-23T19:36:08.186Z,0.46
2022-12-23T19:38:35.376Z,0.22
2022-12-23T19:41:02.419Z,0.39
2022-12-23T19:43:29.667Z,0.36
2022-12-23T19:46:02.747Z,0.38
2022-12-23T19:48:30.026Z,0.12
2022-12-23T19:51:03.388Z,0.45
2022-12-23T19:53:31.454Z,0.39
2022-12-23T19:56:22.063Z,0.50
2022-12-23T19:58:50.099Z,0.34
2022-12-23T20:01:21.632Z,0.51
2022-12-23T20:03:49.992Z,0.22
2022-12-23T20:06:28.026Z,0.50
2022-12-23T20:09:00.262Z,0.42
2022-12-23T20:11:30.885Z,0.49
2022-12-23T20:13:58.750Z,0.47
2022-12-23T20:16:26.507Z,0.43
2022-12-23T20:18:54.542Z,0.23
2022-12-23T20:21:21.896Z,0.36
2022-12-23T20:23:49.331Z,0.46
2022-12-23T20:26:18.541Z,0.34
2022-12-23T20:28:45.730Z,0.18
2022-12-23T20:31:24.315Z,0.49
2022-12-23T20:33:52.948Z,0.38
2022-12-23T20:36:23.566Z,0.34
2022-12-23T20:38:51.737Z,0.45
2022-12-23T20:41:21.601Z,0.42
2022-12-23T20:44:15.702Z,0.31
2022-12-23T20:46:36.542Z,0.38
2022-12-23T20:49:03.646Z,0.29
2022-12-23T20:51:30.747Z,0.37
2022-12-23T20:54:01.127Z,0.29
2022-12-23T20:56:30.504Z,0.17
2022-12-23T20:58:59.458Z,0.21
2022-12-23T21:01:35.309Z,0.46
2022-12-23T21:04:05.787Z,0.37
2022-12-23T21:06:33.462Z,0.45
2022-12-23T21:09:04.401Z,0.45
2022-12-23T21:11:34.488Z,0.38
2022-12-23T21:14:07.237Z,0.21
2022-12-23T21:16:36.231Z,0.32
2022-12-23T21:19:03.844Z,0.42
2022-12-23T21:21:32.082Z,0.46
2022-12-23T21:24:01.705Z,0.33
2022-12-23T21:26:30.295Z,0.39
2022-12-23T21:28:59.668Z,0.45
2022-12-23T21:31:28.309Z,0.38
2022-12-23T21:33:56.158Z,0.21
2022-12-23T21:36:26.932Z,0.22
2022-12-23T21:38:54.228Z,0.46
2022-12-23T21:41:30.098Z,0.41
2022-12-23T21:43:58.484Z,-0.02
2022-12-23T21:46:26.515Z,0.25
2022-12-23T21:48:55.188Z,0.36
2022-12-23T21:51:38.925Z,0.46
2022-12-23T21:54:09.142Z,0.45
2022-12-23T21:56:36.478Z,0.42
2022-12-23T21:59:06.777Z,0.46
2022-12-23T22:01:34.370Z,0.45
2022-12-23T22:04:01.349Z,0.44
2022-12-23T22:06:31.908Z,0.45
2022-12-23T22:08:59.571Z,0.32
2022-12-23T22:11:31.584Z,0.44
2022-12-23T22:14:00.242Z,0.43
2022-12-23T22:16:29.033Z,0.24
2022-12-23T22:18:58.562Z,0.37
2022-12-23T22:21:27.123Z,0.43
2022-12-23T22:23:55.121Z,0.41
2022-12-23T22:26:26.313Z,0.41
2022-12-23T22:28:58.856Z,0.42
2022-12-23T22:31:35.087Z,0.42
2022-12-23T22:34:03.852Z,0.43
2022-12-23T22:36:32.464Z,0.42
2022-12-23T22:39:01.163Z,0.36
2022-12-23T22:41:29.864Z,0.42
2022-12-23T22:43:58.005Z,0.41
2022-12-23T22:46:25.692Z,0.41
2022-12-23T22:48:53.362Z,0.06
2022-12-23T22:51:22.988Z,0.30
2022-12-23T22:53:50.479Z,0.27
2022-12-23T22:56:20.034Z,0.30
2022-12-23T22:58:47.740Z,0.38
2022-12-23T23:01:25.915Z,0.23
2022-12-23T23:03:57.473Z,0.36
2022-12-23T23:06:29.945Z,0.38
2022-12-23T23:08:58.115Z,0.38
2022-12-23T23:11:26.505Z,0.25
2022-12-23T23:13:54.451Z,0.34
2022-12-23T23:16:22.301Z,0.10
2022-12-23T23:18:49.731Z,0.38
2022-12-23T23:21:16.928Z,0.37
2022-12-23T23:23:44.046Z,0.36
2022-12-23T23:26:11.459Z,0.37
2022-12-23T23:28:39.643Z,0.20
2022-12-23T23:33:55.122Z,0.22
2022-12-23T23:36:22.189Z,0.07
2022-12-23T23:38:49.144Z,0.30
2022-12-23T23:41:22.224Z,0.19
2022-12-23T23:43:49.748Z,0.31
2022-12-23T23:46:16.756Z,0.22
2022-12-23T23:48:43.789Z,0.25
2022-12-23T23:51:10.802Z,0.27
2022-12-23T23:53:37.782Z,0.31
2022-12-23T23:56:09.055Z,-0.01
2022-12-23T23:58:37.274Z,0.09
